createdAt,value
2023-08-08T00:00:56.172Z,72.29
2023-08-08T00:05:59.339Z,71.87
2023-08-08T00:11:02.572Z,71.22
2023-08-08T00:16:07.309Z,72.45
2023-08-08T00:21:10.595Z,69.40
2023-08-08T00:26:13.782Z,69.17
2023-08-08T00:31:20.983Z,69.49
2023-08-08T00:36:25.119Z,68.50
2023-08-08T00:41:28.484Z,70.00
2023-08-08T00:46:33.717Z,69.56
2023-08-08T00:51:37.018Z,69.81
2023-08-08T00:56:40.207Z,69.90
2023-08-08T01:01:44.953Z,71.42
2023-08-08T01:06:53.857Z,72.38
2023-08-08T01:11:57.966Z,72.05
2023-08-08T01:17:03.378Z,71.01
2023-08-08T01:22:08.953Z,70.05
2023-08-08T01:27:13.652Z,71.22
2023-08-08T01:32:17.110Z,69.36
2023-08-08T01:37:23.247Z,68.36
2023-08-08T01:42:28.596Z,69.73
2023-08-08T01:47:32.277Z,67.34
2023-08-08T01:52:35.474Z,70.86
2023-08-08T01:57:40.147Z,71.91
2023-08-08T02:02:43.487Z,72.90
2023-08-08T02:07:47.223Z,72.02
2023-08-08T02:12:51.809Z,69.98
2023-08-08T02:17:55.102Z,70.73
2023-08-08T02:22:58.288Z,73.89
2023-08-08T02:28:03.042Z,73.60
2023-08-08T02:33:06.688Z,75.21
2023-08-08T02:38:09.955Z,75.69
2023-08-08T02:43:14.533Z,71.38
2023-08-08T02:48:17.681Z,71.13
2023-08-08T02:53:20.966Z,72.19
2023-08-08T02:58:25.560Z,71.61
2023-08-08T03:03:28.739Z,72.70
2023-08-08T03:08:32.013Z,71.94
2023-08-08T03:13:38.348Z,72.49
2023-08-08T03:18:41.547Z,72.85
2023-08-08T03:23:46.250Z,75.71
2023-08-08T03:28:51.914Z,76.10
2023-08-08T03:33:55.218Z,73.31
2023-08-08T03:38:58.435Z,74.02
2023-08-08T03:44:03.936Z,74.78
2023-08-08T03:49:07.286Z,74.50
2023-08-08T03:54:10.631Z,74.77
2023-08-08T03:59:15.317Z,74.67
2023-08-08T04:04:18.521Z,74.04
2023-08-08T04:09:22.144Z,74.74
2023-08-08T04:14:26.910Z,75.91
2023-08-08T04:19:30.204Z,74.46
2023-08-08T04:24:33.343Z,72.89
2023-08-08T04:29:38.248Z,74.50
2023-08-08T04:34:41.406Z,74.64
2023-08-08T04:39:44.938Z,71.77
2023-08-08T04:44:49.592Z,75.56
2023-08-08T04:49:53.200Z,76.48
2023-08-08T04:54:56.541Z,76.03
2023-08-08T05:00:04.247Z,74.26
2023-08-08T05:05:08.312Z,74.67
2023-08-08T05:10:12.117Z,72.17
2023-08-08T05:15:16.885Z,72.28
2023-08-08T05:20:20.141Z,68.76
2023-08-08T05:25:23.384Z,67.23
2023-08-08T05:30:27.992Z,68.99
2023-08-08T05:35:31.427Z,65.91
2023-08-08T05:40:36.611Z,67.36
2023-08-08T05:45:41.208Z,66.16
2023-08-08T05:50:44.550Z,67.39
2023-08-08T05:55:51.468Z,64.05
2023-08-08T06:00:56.067Z,63.89
2023-08-08T06:05:59.412Z,54.23
2023-08-08T06:11:02.574Z,49.98
2023-08-08T06:16:08.079Z,56.65
2023-08-08T06:21:11.449Z,56.05
2023-08-08T06:26:15.164Z,55.26
2023-08-08T06:31:21.135Z,52.96
2023-08-08T06:36:24.339Z,52.00
2023-08-08T06:41:27.576Z,50.44
2023-08-08T06:46:32.691Z,47.30
2023-08-08T06:51:36.237Z,50.42
2023-08-08T06:56:39.480Z,50.87
2023-08-08T07:01:44.050Z,50.58
2023-08-08T07:06:47.344Z,48.67
2023-08-08T07:11:50.608Z,48.01
2023-08-08T07:16:55.431Z,46.06
2023-08-08T07:21:59.157Z,46.01
2023-08-08T07:27:02.675Z,44.66
2023-08-08T07:32:08.231Z,45.41
2023-08-08T07:37:12.150Z,45.98
2023-08-08T07:42:15.712Z,45.88
2023-08-08T07:47:21.600Z,44.76
2023-08-08T07:52:25.247Z,46.32
2023-08-08T07:57:29.344Z,47.58
2023-08-08T08:02:34.172Z,47.70
2023-08-08T08:07:38.048Z,46.58
2023-08-08T08:12:42.422Z,45.57
2023-08-08T08:17:47.018Z,46.17
2023-08-08T08:22:50.509Z,46.00
2023-08-08T08:27:53.774Z,44.80
2023-08-08T08:32:59.036Z,45.70
2023-08-08T08:38:02.284Z,45.41
2023-08-08T08:43:06.591Z,45.34
2023-08-08T08:48:12.970Z,46.51
2023-08-08T08:53:18.842Z,44.69
2023-08-08T08:58:22.176Z,46.48
2023-08-08T09:03:27.044Z,45.08
2023-08-08T09:08:31.018Z,44.44
2023-08-08T09:13:39.807Z,43.86
2023-08-08T09:18:46.042Z,42.36
2023-08-08T09:23:50.100Z,42.72
2023-08-08T09:28:53.656Z,42.71
2023-08-08T09:33:58.871Z,43.65
2023-08-08T09:39:02.235Z,43.49
2023-08-08T09:44:06.042Z,42.97
2023-08-08T09:49:12.078Z,41.30
2023-08-08T09:54:18.585Z,39.45
2023-08-08T09:59:22.928Z,39.57
2023-08-08T10:04:28.280Z,40.73
2023-08-08T10:09:31.672Z,41.67
2023-08-08T10:14:38.275Z,38.35
2023-08-08T10:19:42.971Z,36.96
2023-08-08T10:24:49.772Z,38.54
2023-08-08T10:29:53.726Z,40.53
2023-08-08T10:35:02.200Z,38.48
2023-08-08T10:40:08.405Z,36.43
2023-08-08T10:45:13.498Z,40.19
2023-08-08T10:50:18.918Z,40.06
2023-08-08T10:55:23.421Z,36.67
2023-08-08T11:00:28.554Z,35.57
2023-08-08T11:05:34.047Z,35.24
2023-08-08T11:10:38.142Z,33.53
2023-08-08T11:15:41.570Z,34.80
2023-08-08T11:20:46.236Z,36.42
2023-08-08T11:26:17.308Z,36.74
2023-08-08T11:31:15.332Z,36.34
2023-08-08T11:36:21.105Z,36.98
2023-08-08T11:41:27.227Z,37.20
2023-08-08T11:46:31.484Z,36.77
2023-08-08T11:51:37.771Z,37.43
2023-08-08T11:56:41.247Z,35.91
2023-08-08T12:01:45.355Z,36.11
2023-08-08T12:06:49.978Z,35.32
2023-08-08T12:11:53.204Z,35.17
2023-08-08T12:16:57.102Z,35.80
2023-08-08T12:22:01.929Z,35.91
2023-08-08T12:27:05.414Z,35.42
2023-08-08T12:32:09.670Z,33.69
2023-08-08T12:37:14.464Z,33.42
2023-08-08T12:42:17.695Z,33.80
2023-08-08T12:47:21.825Z,33.34
2023-08-08T12:52:26.705Z,33.23
2023-08-08T12:57:30.988Z,33.62
2023-08-08T13:02:35.336Z,33.65
2023-08-08T13:07:40.052Z,32.91
2023-08-08T13:12:43.295Z,32.45
2023-08-08T13:17:46.602Z,32.30
2023-08-08T13:22:51.344Z,31.92
2023-08-08T13:27:54.646Z,32.31
2023-08-08T13:32:58.981Z,32.31
2023-08-08T13:38:05.322Z,32.66
2023-08-08T13:43:08.642Z,31.01
2023-08-08T13:48:11.842Z,30.93
2023-08-08T13:53:16.460Z,30.90
2023-08-08T13:58:23.075Z,31.02
2023-08-08T14:03:26.705Z,31.02
2023-08-08T14:08:31.342Z,31.31
2023-08-08T14:13:35.954Z,31.07
2023-08-08T14:18:39.220Z,31.00
2023-08-08T14:23:45.535Z,31.86
2023-08-08T14:28:48.744Z,29.96
2023-08-08T14:33:51.928Z,28.67
2023-08-08T14:38:56.689Z,29.51
2023-08-08T14:43:59.972Z,29.10
2023-08-08T14:49:05.326Z,28.52
2023-08-08T14:54:09.990Z,28.50
2023-08-08T14:59:13.269Z,28.25
2023-08-08T15:04:16.889Z,28.43
2023-08-08T15:09:24.199Z,27.17
2023-08-08T15:14:27.575Z,27.27
2023-08-08T15:19:30.856Z,27.29
2023-08-08T15:24:37.638Z,27.27
2023-08-08T15:29:41.144Z,27.20
2023-08-08T15:34:45.180Z,27.30
2023-08-08T15:39:49.805Z,26.25
2023-08-08T15:44:53.351Z,25.84
2023-08-08T15:49:56.712Z,26.01
2023-08-08T15:55:01.336Z,24.54
2023-08-08T16:00:05.045Z,24.39
2023-08-08T16:05:09.304Z,24.14
2023-08-08T16:10:14.356Z,24.81
2023-08-08T16:15:19.265Z,25.43
2023-08-08T16:20:25.515Z,24.64
2023-08-08T16:25:30.400Z,24.77
2023-08-08T16:30:33.738Z,25.70
2023-08-08T16:35:37.154Z,26.57
2023-08-08T16:40:41.979Z,26.09
2023-08-08T16:45:45.417Z,26.42
2023-08-08T16:50:48.894Z,26.12
2023-08-08T16:55:53.525Z,26.85
2023-08-08T17:00:57.304Z,28.13
2023-08-08T17:06:00.814Z,28.52
2023-08-08T17:11:05.562Z,29.74
2023-08-08T17:16:09.118Z,29.97
2023-08-08T17:21:12.444Z,30.81
2023-08-08T17:26:17.146Z,31.26
2023-08-08T17:31:20.700Z,31.90
2023-08-08T17:36:24.017Z,32.75
2023-08-08T17:41:28.762Z,32.72
2023-08-08T17:46:32.236Z,32.45
2023-08-08T17:51:35.490Z,32.24
2023-08-08T17:56:40.047Z,31.97
2023-08-08T18:01:44.545Z,33.15
2023-08-08T18:06:47.802Z,33.68
2023-08-08T18:11:52.640Z,33.36
2023-08-08T18:16:55.923Z,33.80
2023-08-08T18:21:59.390Z,33.51
2023-08-08T18:27:04.316Z,37.67
2023-08-08T18:32:08.449Z,39.01
2023-08-08T18:37:12.086Z,39.82
2023-08-08T18:42:16.755Z,41.63
2023-08-08T18:47:20.549Z,42.54
2023-08-08T18:52:23.841Z,42.40
2023-08-08T18:57:28.676Z,41.77
2023-08-08T19:02:32.029Z,42.14
2023-08-08T19:07:35.305Z,43.25
2023-08-08T19:12:39.946Z,43.19
2023-08-08T19:17:55.462Z,45.02
2023-08-08T19:22:59.545Z,45.56
2023-08-08T19:28:04.364Z,45.23
2023-08-08T19:33:07.633Z,45.57
2023-08-08T19:38:10.831Z,46.65
2023-08-08T19:43:15.414Z,46.86
2023-08-08T19:48:18.638Z,48.49
2023-08-08T19:53:22.901Z,48.80
2023-08-08T19:58:28.164Z,48.82
2023-08-08T20:03:31.661Z,49.02
2023-08-08T20:08:35.279Z,51.22
2023-08-08T20:13:39.892Z,52.94
2023-08-08T20:18:43.169Z,54.21
2023-08-08T20:23:46.433Z,53.09
2023-08-08T20:28:51.575Z,54.06
2023-08-08T20:33:57.524Z,55.03
2023-08-08T20:39:00.856Z,54.88
2023-08-08T20:44:08.118Z,54.85
2023-08-08T20:49:11.430Z,55.32
2023-08-08T20:54:14.781Z,54.75
2023-08-08T20:59:19.524Z,54.53
2023-08-08T21:04:23.193Z,56.41
2023-08-08T21:09:26.640Z,56.99
2023-08-08T21:14:31.272Z,56.89
2023-08-08T21:19:34.497Z,55.96
2023-08-08T21:24:37.758Z,56.75
2023-08-08T21:29:43.989Z,55.37
2023-08-08T21:34:47.276Z,54.04
2023-08-08T21:39:50.564Z,58.38
2023-08-08T21:44:55.101Z,57.21
2023-08-08T21:49:58.942Z,57.40
2023-08-08T21:55:02.446Z,59.82
2023-08-08T22:00:13.955Z,57.17
2023-08-08T22:05:17.383Z,58.97
2023-08-08T22:10:21.004Z,58.78
2023-08-08T22:15:25.597Z,60.66
2023-08-08T22:20:28.977Z,59.46
2023-08-08T22:25:32.373Z,57.86
2023-08-08T22:30:37.182Z,62.32
2023-08-08T22:35:40.555Z,61.59
2023-08-08T22:40:45.591Z,59.91
2023-08-08T22:45:51.562Z,61.75
2023-08-08T22:50:54.792Z,64.96
2023-08-08T22:55:58.062Z,62.45
2023-08-08T23:01:02.704Z,63.01
2023-08-08T23:06:06.028Z,62.81
2023-08-08T23:11:09.297Z,64.11
2023-08-08T23:16:13.973Z,61.57
2023-08-08T23:21:17.268Z,61.26
2023-08-08T23:26:20.600Z,59.51
2023-08-08T23:31:25.233Z,56.86
2023-08-08T23:36:28.730Z,55.66
2023-08-08T23:41:32.013Z,52.83
2023-08-08T23:46:36.627Z,53.97
2023-08-08T23:51:44.317Z,56.77
2023-08-08T23:56:47.553Z,57.76
